sensor_id;sensor_type;location;lat;lon;timestamp;temperature;humidity
10968;DHT22;5536;49.602;10.980;2023-04-03T00:00:33;4.20;99.50
10968;DHT22;5536;49.602;10.980;2023-04-03T00:03:00;4.30;99.90
10968;DHT22;5536;49.602;10.980;2023-04-03T00:05:27;4.20;99.90
10968;DHT22;5536;49.602;10.980;2023-04-03T00:07:56;4.20;99.90
10968;DHT22;5536;49.602;10.980;2023-04-03T00:10:23;4.10;99.90
10968;DHT22;5536;49.602;10.980;2023-04-03T00:12:50;4.10;99.90
10968;DHT22;5536;49.602;10.980;2023-04-03T00:15:17;4.00;99.90
10968;DHT22;5536;49.602;10.980;2023-04-03T00:17:44;4.00;99.90
10968;DHT22;5536;49.602;10.980;2023-04-03T00:20:12;4.00;99.90
10968;DHT22;5536;49.602;10.980;2023-04-03T00:22:39;3.90;99.90
10968;DHT22;5536;49.602;10.980;2023-04-03T00:25:08;3.90;99.90
10968;DHT22;5536;49.602;10.980;2023-04-03T00:27:36;3.90;99.90
10968;DHT22;5536;49.602;10.980;2023-04-03T00:30:06;3.80;99.90
10968;DHT22;5536;49.602;10.980;2023-04-03T00:32:33;3.80;99.90
10968;DHT22;5536;49.602;10.980;2023-04-03T00:35:00;3.70;99.90
10968;DHT22;5536;49.602;10.980;2023-04-03T00:37:28;3.70;99.90
10968;DHT22;5536;49.602;10.980;2023-04-03T00:39:55;3.70;99.90
10968;DHT22;5536;49.602;10.980;2023-04-03T00:42:23;3.60;99.90
10968;DHT22;5536;49.602;10.980;2023-04-03T00:45:27;3.70;99.90
10968;DHT22;5536;49.602;10.980;2023-04-03T00:47:54;3.60;99.90
10968;DHT22;5536;49.602;10.980;2023-04-03T00:50:22;3.50;99.90
10968;DHT22;5536;49.602;10.980;2023-04-03T00:52:50;3.60;99.90
10968;DHT22;5536;49.602;10.980;2023-04-03T00:55:17;3.60;99.90
10968;DHT22;5536;49.602;10.980;2023-04-03T00:57:47;3.70;99.90
10968;DHT22;5536;49.602;10.980;2023-04-03T01:00:17;3.70;99.90
10968;DHT22;5536;49.602;10.980;2023-04-03T01:02:45;3.80;99.90
10968;DHT22;5536;49.602;10.980;2023-04-03T01:05:12;3.70;99.90
10968;DHT22;5536;49.602;10.980;2023-04-03T01:07:42;3.70;99.90
10968;DHT22;5536;49.602;10.980;2023-04-03T01:10:12;3.60;99.90
10968;DHT22;5536;49.602;10.980;2023-04-03T01:12:42;3.60;99.90
10968;DHT22;5536;49.602;10.980;2023-04-03T01:15:13;3.60;99.90
10968;DHT22;5536;49.602;10.980;2023-04-03T01:17:42;3.50;99.90
10968;DHT22;5536;49.602;10.980;2023-04-03T01:23:27;3.50;99.90
10968;DHT22;5536;49.602;10.980;2023-04-03T01:25:58;3.40;99.90
10968;DHT22;5536;49.602;10.980;2023-04-03T01:28:27;3.40;99.90
10968;DHT22;5536;49.602;10.980;2023-04-03T01:31:02;3.40;99.90
10968;DHT22;5536;49.602;10.980;2023-04-03T01:33:34;3.40;99.90
10968;DHT22;5536;49.602;10.980;2023-04-03T01:36:02;3.30;99.90
10968;DHT22;5536;49.602;10.980;2023-04-03T01:38:29;3.20;99.90
10968;DHT22;5536;49.602;10.980;2023-04-03T01:40:56;3.20;99.90
10968;DHT22;5536;49.602;10.980;2023-04-03T01:43:24;3.20;99.90
10968;DHT22;5536;49.602;10.980;2023-04-03T01:45:50;3.10;99.90
10968;DHT22;5536;49.602;10.980;2023-04-03T01:48:20;3.10;99.90
10968;DHT22;5536;49.602;10.980;2023-04-03T01:50:48;3.10;99.90
10968;DHT22;5536;49.602;10.980;2023-04-03T01:53:15;3.10;99.90
10968;DHT22;5536;49.602;10.980;2023-04-03T01:55:42;3.10;99.90
10968;DHT22;5536;49.602;10.980;2023-04-03T01:58:09;3.10;99.90
10968;DHT22;5536;49.602;10.980;2023-04-03T02:00:36;3.10;99.90
10968;DHT22;5536;49.602;10.980;2023-04-03T02:03:04;3.10;99.90
10968;DHT22;5536;49.602;10.980;2023-04-03T02:05:31;3.10;99.90
10968;DHT22;5536;49.602;10.980;2023-04-03T02:07:59;3.00;99.90
10968;DHT22;5536;49.602;10.980;2023-04-03T02:10:26;3.00;99.90
10968;DHT22;5536;49.602;10.980;2023-04-03T02:12:53;2.90;99.90
10968;DHT22;5536;49.602;10.980;2023-04-03T02:15:21;3.00;99.90
10968;DHT22;5536;49.602;10.980;2023-04-03T02:17:48;3.00;99.90
10968;DHT22;5536;49.602;10.980;2023-04-03T02:20:15;3.00;99.90
10968;DHT22;5536;49.602;10.980;2023-04-03T02:22:42;2.90;99.90
10968;DHT22;5536;49.602;10.980;2023-04-03T02:25:11;3.00;99.90
10968;DHT22;5536;49.602;10.980;2023-04-03T02:27:38;3.00;99.90
10968;DHT22;5536;49.602;10.980;2023-04-03T02:30:06;3.00;99.90
10968;DHT22;5536;49.602;10.980;2023-04-03T02:32:36;3.00;99.90
10968;DHT22;5536;49.602;10.980;2023-04-03T02:35:03;3.00;99.90
10968;DHT22;5536;49.602;10.980;2023-04-03T02:37:30;3.10;99.90
10968;DHT22;5536;49.602;10.980;2023-04-03T02:39:57;3.20;99.90
10968;DHT22;5536;49.602;10.980;2023-04-03T02:42:26;3.30;99.90
10968;DHT22;5536;49.602;10.980;2023-04-03T02:44:53;3.30;99.90
10968;DHT22;5536;49.602;10.980;2023-04-03T02:47:21;3.30;99.90
10968;DHT22;5536;49.602;10.980;2023-04-03T02:49:50;3.30;99.90
10968;DHT22;5536;49.602;10.980;2023-04-03T02:52:18;3.40;99.90
10968;DHT22;5536;49.602;10.980;2023-04-03T02:54:45;3.40;99.90
10968;DHT22;5536;49.602;10.980;2023-04-03T02:57:12;3.40;99.90
10968;DHT22;5536;49.602;10.980;2023-04-03T02:59:41;3.40;99.90
10968;DHT22;5536;49.602;10.980;2023-04-03T03:02:08;3.40;99.90
10968;DHT22;5536;49.602;10.980;2023-04-03T03:04:35;3.40;99.90
10968;DHT22;5536;49.602;10.980;2023-04-03T03:07:03;3.40;99.90
10968;DHT22;5536;49.602;10.980;2023-04-03T03:09:30;3.50;99.90
10968;DHT22;5536;49.602;10.980;2023-04-03T03:11:57;3.50;99.90
10968;DHT22;5536;49.602;10.980;2023-04-03T03:14:24;3.50;99.90
10968;DHT22;5536;49.602;10.980;2023-04-03T03:16:52;3.50;99.90
10968;DHT22;5536;49.602;10.980;2023-04-03T03:19:19;3.50;99.90
10968;DHT22;5536;49.602;10.980;2023-04-03T03:21:48;3.50;99.90
10968;DHT22;5536;49.602;10.980;2023-04-03T03:24:15;3.50;99.90
10968;DHT22;5536;49.602;10.980;2023-04-03T03:26:43;3.50;99.90
10968;DHT22;5536;49.602;10.980;2023-04-03T03:29:10;3.40;99.90
10968;DHT22;5536;49.602;10.980;2023-04-03T03:31:37;3.40;99.90
10968;DHT22;5536;49.602;10.980;2023-04-03T03:34:05;3.40;99.90
10968;DHT22;5536;49.602;10.980;2023-04-03T03:36:32;3.40;99.90
10968;DHT22;5536;49.602;10.980;2023-04-03T03:38:59;3.30;99.90
10968;DHT22;5536;49.602;10.980;2023-04-03T03:41:26;3.30;99.90
10968;DHT22;5536;49.602;10.980;2023-04-03T03:43:53;3.30;99.90
10968;DHT22;5536;49.602;10.980;2023-04-03T03:46:20;3.30;99.90
10968;DHT22;5536;49.602;10.980;2023-04-03T03:48:47;3.40;99.90
10968;DHT22;5536;49.602;10.980;2023-04-03T03:51:16;3.40;99.90
10968;DHT22;5536;49.602;10.980;2023-04-03T03:53:43;3.40;99.90
10968;DHT22;5536;49.602;10.980;2023-04-03T03:56:10;3.40;99.90
10968;DHT22;5536;49.602;10.980;2023-04-03T03:58:37;3.30;99.90
10968;DHT22;5536;49.602;10.980;2023-04-03T04:01:05;3.30;99.90
10968;DHT22;5536;49.602;10.980;2023-04-03T04:03:36;3.30;99.90
10968;DHT22;5536;49.602;10.980;2023-04-03T04:06:03;3.30;99.90
10968;DHT22;5536;49.602;10.980;2023-04-03T04:08:31;3.20;99.90
10968;DHT22;5536;49.602;10.980;2023-04-03T04:10:58;3.20;99.90
10968;DHT22;5536;49.602;10.980;2023-04-03T04:13:25;3.20;99.90
10968;DHT22;5536;49.602;10.980;2023-04-03T04:15:52;3.10;99.90
10968;DHT22;5536;49.602;10.980;2023-04-03T04:18:19;3.10;99.90
10968;DHT22;5536;49.602;10.980;2023-04-03T04:20:48;3.00;99.90
10968;DHT22;5536;49.602;10.980;2023-04-03T04:23:15;3.00;99.90
10968;DHT22;5536;49.602;10.980;2023-04-03T04:25:45;2.90;99.90
10968;DHT22;5536;49.602;10.980;2023-04-03T04:28:13;2.90;99.90
10968;DHT22;5536;49.602;10.980;2023-04-03T04:30:40;2.80;99.90
10968;DHT22;5536;49.602;10.980;2023-04-03T04:33:07;2.80;99.90
10968;DHT22;5536;49.602;10.980;2023-04-03T04:35:34;2.80;99.90
10968;DHT22;5536;49.602;10.980;2023-04-03T04:38:01;2.80;99.90
10968;DHT22;5536;49.602;10.980;2023-04-03T04:40:28;2.80;99.90
10968;DHT22;5536;49.602;10.980;2023-04-03T04:42:57;2.70;99.90
10968;DHT22;5536;49.602;10.980;2023-04-03T04:45:26;2.70;99.90
10968;DHT22;5536;49.602;10.980;2023-04-03T04:47:56;2.70;99.90
10968;DHT22;5536;49.602;10.980;2023-04-03T04:50:23;2.60;99.90
10968;DHT22;5536;49.602;10.980;2023-04-03T04:52:50;2.70;99.90
10968;DHT22;5536;49.602;10.980;2023-04-03T04:55:17;2.60;99.90
10968;DHT22;5536;49.602;10.980;2023-04-03T04:57:44;2.60;99.90
10968;DHT22;5536;49.602;10.980;2023-04-03T05:00:14;2.60;99.90
10968;DHT22;5536;49.602;10.980;2023-04-03T05:02:42;2.60;99.90
10968;DHT22;5536;49.602;10.980;2023-04-03T05:05:09;2.50;99.90
10968;DHT22;5536;49.602;10.980;2023-04-03T05:07:36;2.50;99.90
10968;DHT22;5536;49.602;10.980;2023-04-03T05:10:03;2.50;99.90
10968;DHT22;5536;49.602;10.980;2023-04-03T05:12:31;2.50;99.90
10968;DHT22;5536;49.602;10.980;2023-04-03T05:14:58;2.50;99.90
10968;DHT22;5536;49.602;10.980;2023-04-03T05:17:27;2.50;99.90
10968;DHT22;5536;49.602;10.980;2023-04-03T05:19:54;2.50;99.90
10968;DHT22;5536;49.602;10.980;2023-04-03T05:22:21;2.40;99.90
10968;DHT22;5536;49.602;10.980;2023-04-03T05:24:48;2.40;99.90
10968;DHT22;5536;49.602;10.980;2023-04-03T05:27:15;2.40;99.90
10968;DHT22;5536;49.602;10.980;2023-04-03T05:29:42;2.40;99.90
10968;DHT22;5536;49.602;10.980;2023-04-03T05:32:09;2.40;99.90
10968;DHT22;5536;49.602;10.980;2023-04-03T05:34:38;2.40;99.90
10968;DHT22;5536;49.602;10.980;2023-04-03T05:37:05;2.40;99.90
10968;DHT22;5536;49.602;10.980;2023-04-03T05:39:32;2.40;99.90
10968;DHT22;5536;49.602;10.980;2023-04-03T05:41:59;2.50;99.90
10968;DHT22;5536;49.602;10.980;2023-04-03T05:44:26;2.50;99.90
10968;DHT22;5536;49.602;10.980;2023-04-03T05:46:53;2.50;99.90
10968;DHT22;5536;49.602;10.980;2023-04-03T05:49:20;2.60;99.90
10968;DHT22;5536;49.602;10.980;2023-04-03T05:51:49;2.60;99.90
10968;DHT22;5536;49.602;10.980;2023-04-03T05:54:19;2.70;99.90
10968;DHT22;5536;49.602;10.980;2023-04-03T05:56:48;2.80;99.90
10968;DHT22;5536;49.602;10.980;2023-04-03T05:59:15;2.90;99.90
10968;DHT22;5536;49.602;10.980;2023-04-03T06:01:42;3.00;99.90
10968;DHT22;5536;49.602;10.980;2023-04-03T06:04:10;3.00;99.90
10968;DHT22;5536;49.602;10.980;2023-04-03T06:06:43;3.10;99.90
10968;DHT22;5536;49.602;10.980;2023-04-03T06:09:12;3.20;99.90
10968;DHT22;5536;49.602;10.980;2023-04-03T06:11:40;3.20;99.90
10968;DHT22;5536;49.602;10.980;2023-04-03T06:14:07;3.20;99.90
10968;DHT22;5536;49.602;10.980;2023-04-03T06:16:34;3.20;99.90
10968;DHT22;5536;49.602;10.980;2023-04-03T06:19:01;3.30;99.90
10968;DHT22;5536;49.602;10.980;2023-04-03T06:21:30;3.30;99.90
10968;DHT22;5536;49.602;10.980;2023-04-03T06:23:57;3.30;99.90
10968;DHT22;5536;49.602;10.980;2023-04-03T06:26:25;3.30;99.90
10968;DHT22;5536;49.602;10.980;2023-04-03T06:28:52;3.40;99.90
10968;DHT22;5536;49.602;10.980;2023-04-03T06:31:19;3.50;99.90
10968;DHT22;5536;49.602;10.980;2023-04-03T06:33:46;3.60;99.90
10968;DHT22;5536;49.602;10.980;2023-04-03T06:36:13;3.60;99.90
10968;DHT22;5536;49.602;10.980;2023-04-03T06:38:40;3.70;99.90
10968;DHT22;5536;49.602;10.980;2023-04-03T06:41:07;3.60;99.90
10968;DHT22;5536;49.602;10.980;2023-04-03T06:43:36;3.60;99.90
10968;DHT22;5536;49.602;10.980;2023-04-03T06:46:03;3.70;99.90
10968;DHT22;5536;49.602;10.980;2023-04-03T06:48:30;3.70;99.90
10968;DHT22;5536;49.602;10.980;2023-04-03T06:50:58;3.70;99.90
10968;DHT22;5536;49.602;10.980;2023-04-03T06:53:25;3.80;99.90
10968;DHT22;5536;49.602;10.980;2023-04-03T06:55:51;3.80;99.90
10968;DHT22;5536;49.602;10.980;2023-04-03T06:58:18;3.90;99.90
10968;DHT22;5536;49.602;10.980;2023-04-03T07:00:47;3.90;99.90
10968;DHT22;5536;49.602;10.980;2023-04-03T07:03:14;3.90;99.90
10968;DHT22;5536;49.602;10.980;2023-04-03T07:05:41;3.90;99.90
10968;DHT22;5536;49.602;10.980;2023-04-03T07:08:10;3.90;99.90
10968;DHT22;5536;49.602;10.980;2023-04-03T07:10:38;3.90;99.90
10968;DHT22;5536;49.602;10.980;2023-04-03T07:13:05;3.90;99.90
10968;DHT22;5536;49.602;10.980;2023-04-03T07:15:32;3.90;99.90
10968;DHT22;5536;49.602;10.980;2023-04-03T07:18:00;4.00;99.90
10968;DHT22;5536;49.602;10.980;2023-04-03T07:20:27;4.10;99.90
10968;DHT22;5536;49.602;10.980;2023-04-03T07:22:54;4.20;99.90
10968;DHT22;5536;49.602;10.980;2023-04-03T07:25:21;4.20;99.90
10968;DHT22;5536;49.602;10.980;2023-04-03T07:27:48;4.30;99.90
10968;DHT22;5536;49.602;10.980;2023-04-03T07:30:16;4.30;99.90
10968;DHT22;5536;49.602;10.980;2023-04-03T07:32:43;4.40;99.90
10968;DHT22;5536;49.602;10.980;2023-04-03T07:35:12;4.40;99.90
10968;DHT22;5536;49.602;10.980;2023-04-03T07:37:39;4.50;99.90
10968;DHT22;5536;49.602;10.980;2023-04-03T07:40:08;4.60;99.90
10968;DHT22;5536;49.602;10.980;2023-04-03T07:42:35;4.80;99.90
10968;DHT22;5536;49.602;10.980;2023-04-03T07:45:03;4.80;99.90
10968;DHT22;5536;49.602;10.980;2023-04-03T07:47:31;4.70;99.90
10968;DHT22;5536;49.602;10.980;2023-04-03T07:49:58;4.70;99.90
10968;DHT22;5536;49.602;10.980;2023-04-03T07:52:27;4.70;99.90
10968;DHT22;5536;49.602;10.980;2023-04-03T07:54:54;4.90;99.90
10968;DHT22;5536;49.602;10.980;2023-04-03T07:57:21;5.00;99.90
10968;DHT22;5536;49.602;10.980;2023-04-03T07:59:48;4.90;99.90
10968;DHT22;5536;49.602;10.980;2023-04-03T08:02:16;5.00;99.90
10968;DHT22;5536;49.602;10.980;2023-04-03T08:04:43;5.00;99.90
10968;DHT22;5536;49.602;10.980;2023-04-03T08:07:10;5.00;99.90
10968;DHT22;5536;49.602;10.980;2023-04-03T08:09:38;5.00;99.90
10968;DHT22;5536;49.602;10.980;2023-04-03T08:12:05;5.00;99.90
10968;DHT22;5536;49.602;10.980;2023-04-03T08:14:33;5.20;99.90
10968;DHT22;5536;49.602;10.980;2023-04-03T08:17:01;5.20;99.90
10968;DHT22;5536;49.602;10.980;2023-04-03T08:19:30;5.10;99.90
10968;DHT22;5536;49.602;10.980;2023-04-03T08:21:58;5.00;99.90
10968;DHT22;5536;49.602;10.980;2023-04-03T08:24:26;5.10;99.90
10968;DHT22;5536;49.602;10.980;2023-04-03T08:26:55;5.30;99.90
10968;DHT22;5536;49.602;10.980;2023-04-03T08:29:22;5.20;99.50
10968;DHT22;5536;49.602;10.980;2023-04-03T08:31:49;5.10;98.50
10968;DHT22;5536;49.602;10.980;2023-04-03T08:34:17;5.00;98.60
10968;DHT22;5536;49.602;10.980;2023-04-03T08:36:44;5.10;98.90
10968;DHT22;5536;49.602;10.980;2023-04-03T08:39:12;5.10;97.60
10968;DHT22;5536;49.602;10.980;2023-04-03T08:41:41;5.10;97.30
10968;DHT22;5536;49.602;10.980;2023-04-03T08:44:17;4.90;96.80
10968;DHT22;5536;49.602;10.980;2023-04-03T08:47:09;5.00;96.60
10968;DHT22;5536;49.602;10.980;2023-04-03T08:49:41;5.10;95.70
10968;DHT22;5536;49.602;10.980;2023-04-03T08:52:17;5.30;96.00
10968;DHT22;5536;49.602;10.980;2023-04-03T08:54:50;5.40;95.60
10968;DHT22;5536;49.602;10.980;2023-04-03T08:57:19;5.40;94.80
10968;DHT22;5536;49.602;10.980;2023-04-03T08:59:48;5.40;91.40
10968;DHT22;5536;49.602;10.980;2023-04-03T09:02:25;5.40;91.70
10968;DHT22;5536;49.602;10.980;2023-04-03T09:04:54;5.60;91.90
10968;DHT22;5536;49.602;10.980;2023-04-03T09:07:25;5.50;85.60
10968;DHT22;5536;49.602;10.980;2023-04-03T09:09:59;5.40;86.50
10968;DHT22;5536;49.602;10.980;2023-04-03T09:12:33;5.40;85.10
10968;DHT22;5536;49.602;10.980;2023-04-03T09:15:10;5.50;85.40
10968;DHT22;5536;49.602;10.980;2023-04-03T09:17:45;5.50;82.50
10968;DHT22;5536;49.602;10.980;2023-04-03T09:20:21;5.30;80.50
10968;DHT22;5536;49.602;10.980;2023-04-03T09:22:52;5.20;83.80
10968;DHT22;5536;49.602;10.980;2023-04-03T09:25:22;5.50;84.60
10968;DHT22;5536;49.602;10.980;2023-04-03T09:27:50;5.60;79.10
10968;DHT22;5536;49.602;10.980;2023-04-03T09:30:20;5.50;80.20
10968;DHT22;5536;49.602;10.980;2023-04-03T09:32:49;5.60;79.50
10968;DHT22;5536;49.602;10.980;2023-04-03T09:35:20;5.70;78.90
10968;DHT22;5536;49.602;10.980;2023-04-03T09:37:49;6.00;81.50
10968;DHT22;5536;49.602;10.980;2023-04-03T09:40:34;6.00;74.90
10968;DHT22;5536;49.602;10.980;2023-04-03T09:43:21;5.70;72.30
10968;DHT22;5536;49.602;10.980;2023-04-03T09:45:51;5.50;72.90
10968;DHT22;5536;49.602;10.980;2023-04-03T09:48:19;5.60;72.80
10968;DHT22;5536;49.602;10.980;2023-04-03T09:51:01;5.60;72.60
10968;DHT22;5536;49.602;10.980;2023-04-03T09:53:37;5.80;71.20
10968;DHT22;5536;49.602;10.980;2023-04-03T09:56:19;6.00;68.00
10968;DHT22;5536;49.602;10.980;2023-04-03T09:58:49;6.30;69.60
10968;DHT22;5536;49.602;10.980;2023-04-03T10:01:29;6.20;67.20
10968;DHT22;5536;49.602;10.980;2023-04-03T10:04:06;6.20;65.00
10968;DHT22;5536;49.602;10.980;2023-04-03T10:06:35;6.20;64.20
10968;DHT22;5536;49.602;10.980;2023-04-03T10:09:05;6.40;67.40
10968;DHT22;5536;49.602;10.980;2023-04-03T10:11:33;6.70;63.40
10968;DHT22;5536;49.602;10.980;2023-04-03T10:14:01;6.60;60.60
10968;DHT22;5536;49.602;10.980;2023-04-03T10:16:36;6.20;63.90
10968;DHT22;5536;49.602;10.980;2023-04-03T10:19:28;6.40;65.10
10968;DHT22;5536;49.602;10.980;2023-04-03T10:21:59;6.30;63.20
10968;DHT22;5536;49.602;10.980;2023-04-03T10:24:36;6.20;63.40
10968;DHT22;5536;49.602;10.980;2023-04-03T10:27:09;6.50;62.50
10968;DHT22;5536;49.602;10.980;2023-04-03T10:29:42;6.60;62.00
10968;DHT22;5536;49.602;10.980;2023-04-03T10:32:34;6.60;61.70
10968;DHT22;5536;49.602;10.980;2023-04-03T10:35:10;6.40;59.60
10968;DHT22;5536;49.602;10.980;2023-04-03T10:37:48;6.20;60.20
10968;DHT22;5536;49.602;10.980;2023-04-03T10:40:27;6.20;63.80
10968;DHT22;5536;49.602;10.980;2023-04-03T10:43:04;6.20;60.20
10968;DHT22;5536;49.602;10.980;2023-04-03T10:45:49;6.70;58.10
10968;DHT22;5536;49.602;10.980;2023-04-03T10:48:29;7.00;57.70
10968;DHT22;5536;49.602;10.980;2023-04-03T10:51:00;7.20;59.90
10968;DHT22;5536;49.602;10.980;2023-04-03T10:53:39;7.40;60.20
10968;DHT22;5536;49.602;10.980;2023-04-03T10:56:15;6.90;56.20
10968;DHT22;5536;49.602;10.980;2023-04-03T10:58:48;6.80;56.40
10968;DHT22;5536;49.602;10.980;2023-04-03T11:01:20;7.00;59.50
10968;DHT22;5536;49.602;10.980;2023-04-03T11:03:52;7.40;57.30
10968;DHT22;5536;49.602;10.980;2023-04-03T11:06:21;7.60;55.90
10968;DHT22;5536;49.602;10.980;2023-04-03T11:08:51;7.60;52.20
10968;DHT22;5536;49.602;10.980;2023-04-03T11:11:25;8.00;52.80
10968;DHT22;5536;49.602;10.980;2023-04-03T11:13:56;8.20;52.10
10968;DHT22;5536;49.602;10.980;2023-04-03T11:16:27;8.40;56.20
10968;DHT22;5536;49.602;10.980;2023-04-03T11:19:01;8.90;50.10
10968;DHT22;5536;49.602;10.980;2023-04-03T11:21:33;8.50;51.10
10968;DHT22;5536;49.602;10.980;2023-04-03T11:24:03;8.60;48.10
10968;DHT22;5536;49.602;10.980;2023-04-03T11:26:38;8.50;48.20
10968;DHT22;5536;49.602;10.980;2023-04-03T11:29:09;8.20;48.40
10968;DHT22;5536;49.602;10.980;2023-04-03T11:31:45;8.00;50.00
10968;DHT22;5536;49.602;10.980;2023-04-03T11:34:24;8.60;48.10
10968;DHT22;5536;49.602;10.980;2023-04-03T11:37:00;9.70;45.70
10968;DHT22;5536;49.602;10.980;2023-04-03T11:39:30;9.10;43.10
10968;DHT22;5536;49.602;10.980;2023-04-03T11:42:15;8.30;44.70
10968;DHT22;5536;49.602;10.980;2023-04-03T11:44:43;8.00;45.10
10968;DHT22;5536;49.602;10.980;2023-04-03T11:47:11;9.20;46.00
10968;DHT22;5536;49.602;10.980;2023-04-03T11:49:57;10.40;44.10
10968;DHT22;5536;49.602;10.980;2023-04-03T11:53:01;10.20;37.30
10968;DHT22;5536;49.602;10.980;2023-04-03T11:55:53;9.50;37.70
10968;DHT22;5536;49.602;10.980;2023-04-03T11:58:29;8.80;37.10
10968;DHT22;5536;49.602;10.980;2023-04-03T12:01:05;9.90;45.90
10968;DHT22;5536;49.602;10.980;2023-04-03T12:12:58;11.30;27.10
10968;DHT22;5536;49.602;10.980;2023-04-03T12:15:54;11.60;28.80
10968;DHT22;5536;49.602;10.980;2023-04-03T12:18:41;11.60;24.60
10968;DHT22;5536;49.602;10.980;2023-04-03T12:21:09;11.80;24.20
10968;DHT22;5536;49.602;10.980;2023-04-03T12:23:56;11.80;23.80
10968;DHT22;5536;49.602;10.980;2023-04-03T12:26:26;12.00;21.90
10968;DHT22;5536;49.602;10.980;2023-04-03T12:28:55;12.30;26.70
10968;DHT22;5536;49.602;10.980;2023-04-03T12:31:25;12.50;19.00
10968;DHT22;5536;49.602;10.980;2023-04-03T12:34:18;11.50;14.20
10968;DHT22;5536;49.602;10.980;2023-04-03T12:36:59;10.60;16.50
10968;DHT22;5536;49.602;10.980;2023-04-03T12:39:51;10.50;23.90
10968;DHT22;5536;49.602;10.980;2023-04-03T12:42:39;11.40;17.90
10968;DHT22;5536;49.602;10.980;2023-04-03T12:45:16;12.30;22.50
10968;DHT22;5536;49.602;10.980;2023-04-03T12:47:45;12.40;18.20
10968;DHT22;5536;49.602;10.980;2023-04-03T12:50:23;12.70;11.60
10968;DHT22;5536;49.602;10.980;2023-04-03T12:52:54;12.80;11.60
10968;DHT22;5536;49.602;10.980;2023-04-03T12:55:23;12.80;9.30
10968;DHT22;5536;49.602;10.980;2023-04-03T12:57:50;12.30;10.40
10968;DHT22;5536;49.602;10.980;2023-04-03T13:03:23;12.60;10.60
10968;DHT22;5536;49.602;10.980;2023-04-03T13:05:53;12.90;7.80
10968;DHT22;5536;49.602;10.980;2023-04-03T13:08:22;11.70;7.90
10968;DHT22;5536;49.602;10.980;2023-04-03T13:10:58;10.50;9.20
10968;DHT22;5536;49.602;10.980;2023-04-03T13:13:26;9.70;12.30
10968;DHT22;5536;49.602;10.980;2023-04-03T13:15:53;10.50;16.30
10968;DHT22;5536;49.602;10.980;2023-04-03T13:18:28;11.80;15.40
10968;DHT22;5536;49.602;10.980;2023-04-03T13:21:00;13.10;9.00
10968;DHT22;5536;49.602;10.980;2023-04-03T13:23:29;14.00;7.80
10968;DHT22;5536;49.602;10.980;2023-04-03T13:25:57;14.50;5.10
10968;DHT22;5536;49.602;10.980;2023-04-03T13:28:28;13.50;1.90
10968;DHT22;5536;49.602;10.980;2023-04-03T13:31:08;13.70;3.20
10968;DHT22;5536;49.602;10.980;2023-04-03T13:33:38;13.60;1.00
10968;DHT22;5536;49.602;10.980;2023-04-03T13:36:08;13.50;2.30
10968;DHT22;5536;49.602;10.980;2023-04-03T13:38:40;13.10;1.10
10968;DHT22;5536;49.602;10.980;2023-04-03T13:41:23;12.30;1.20
10968;DHT22;5536;49.602;10.980;2023-04-03T13:43:51;12.40;5.40
10968;DHT22;5536;49.602;10.980;2023-04-03T13:46:25;13.10;4.60
10968;DHT22;5536;49.602;10.980;2023-04-03T13:48:56;12.30;2.90
10968;DHT22;5536;49.602;10.980;2023-04-03T13:51:24;12.00;3.80
10968;DHT22;5536;49.602;10.980;2023-04-03T13:53:54;12.20;4.50
10968;DHT22;5536;49.602;10.980;2023-04-03T13:56:26;12.70;1.00
10968;DHT22;5536;49.602;10.980;2023-04-03T13:58:56;11.80;1.00
10968;DHT22;5536;49.602;10.980;2023-04-03T14:01:34;11.80;6.10
10968;DHT22;5536;49.602;10.980;2023-04-03T14:04:16;12.00;4.80
10968;DHT22;5536;49.602;10.980;2023-04-03T14:06:43;11.90;1.40
10968;DHT22;5536;49.602;10.980;2023-04-03T14:09:11;12.30;1.20
10968;DHT22;5536;49.602;10.980;2023-04-03T14:11:39;12.90;1.00
10968;DHT22;5536;49.602;10.980;2023-04-03T14:14:12;12.00;2.20
10968;DHT22;5536;49.602;10.980;2023-04-03T14:16:43;10.70;1.30
10968;DHT22;5536;49.602;10.980;2023-04-03T14:19:19;10.10;3.30
10968;DHT22;5536;49.602;10.980;2023-04-03T14:21:47;10.90;3.90
10968;DHT22;5536;49.602;10.980;2023-04-03T14:24:14;11.20;1.50
10968;DHT22;5536;49.602;10.980;2023-04-03T14:26:42;11.10;1.20
10968;DHT22;5536;49.602;10.980;2023-04-03T14:29:11;11.00;3.30
10968;DHT22;5536;49.602;10.980;2023-04-03T14:31:38;10.50;4.50
10968;DHT22;5536;49.602;10.980;2023-04-03T14:34:05;10.00;4.20
10968;DHT22;5536;49.602;10.980;2023-04-03T14:36:34;9.60;4.60
10968;DHT22;5536;49.602;10.980;2023-04-03T14:39:02;9.40;8.50
10968;DHT22;5536;49.602;10.980;2023-04-03T14:41:29;9.50;7.30
10968;DHT22;5536;49.602;10.980;2023-04-03T14:43:57;9.60;6.00
10968;DHT22;5536;49.602;10.980;2023-04-03T14:46:26;9.40;7.30
10968;DHT22;5536;49.602;10.980;2023-04-03T14:48:55;9.50;6.00
10968;DHT22;5536;49.602;10.980;2023-04-03T14:51:22;9.40;6.00
10968;DHT22;5536;49.602;10.980;2023-04-03T14:53:51;9.40;6.20
10968;DHT22;5536;49.602;10.980;2023-04-03T14:56:19;9.10;5.70
10968;DHT22;5536;49.602;10.980;2023-04-03T14:58:48;8.90;7.00
10968;DHT22;5536;49.602;10.980;2023-04-03T15:01:16;8.70;6.40
10968;DHT22;5536;49.602;10.980;2023-04-03T15:03:43;8.70;7.70
10968;DHT22;5536;49.602;10.980;2023-04-03T15:06:12;8.70;7.20
10968;DHT22;5536;49.602;10.980;2023-04-03T15:08:39;8.50;8.10
10968;DHT22;5536;49.602;10.980;2023-04-03T15:11:09;8.60;8.00
10968;DHT22;5536;49.602;10.980;2023-04-03T15:13:37;8.50;10.10
10968;DHT22;5536;49.602;10.980;2023-04-03T15:16:05;8.60;9.70
10968;DHT22;5536;49.602;10.980;2023-04-03T15:18:36;8.60;8.90
10968;DHT22;5536;49.602;10.980;2023-04-03T15:21:04;8.70;8.30
10968;DHT22;5536;49.602;10.980;2023-04-03T15:23:31;8.60;8.60
10968;DHT22;5536;49.602;10.980;2023-04-03T15:25:58;8.50;9.40
10968;DHT22;5536;49.602;10.980;2023-04-03T15:28:29;8.40;9.00
10968;DHT22;5536;49.602;10.980;2023-04-03T15:30:57;8.20;7.00
10968;DHT22;5536;49.602;10.980;2023-04-03T15:33:24;8.00;7.50
10968;DHT22;5536;49.602;10.980;2023-04-03T15:35:51;8.10;9.30
10968;DHT22;5536;49.602;10.980;2023-04-03T15:38:18;8.10;8.80
10968;DHT22;5536;49.602;10.980;2023-04-03T15:40:45;8.40;9.20
10968;DHT22;5536;49.602;10.980;2023-04-03T15:45:46;9.40;7.00
10968;DHT22;5536;49.602;10.980;2023-04-03T15:48:13;9.30;6.70
10968;DHT22;5536;49.602;10.980;2023-04-03T15:50:41;9.00;6.30
10968;DHT22;5536;49.602;10.980;2023-04-03T15:53:09;8.90;6.60
10968;DHT22;5536;49.602;10.980;2023-04-03T15:55:37;8.90;7.00
10968;DHT22;5536;49.602;10.980;2023-04-03T15:58:04;8.80;6.50
10968;DHT22;5536;49.602;10.980;2023-04-03T16:00:32;8.70;6.70
10968;DHT22;5536;49.602;10.980;2023-04-03T16:03:04;8.60;5.10
10968;DHT22;5536;49.602;10.980;2023-04-03T16:05:32;8.70;6.00
10968;DHT22;5536;49.602;10.980;2023-04-03T16:08:00;8.80;5.40
10968;DHT22;5536;49.602;10.980;2023-04-03T16:10:27;8.60;5.80
10968;DHT22;5536;49.602;10.980;2023-04-03T16:12:54;8.40;5.90
10968;DHT22;5536;49.602;10.980;2023-04-03T16:15:22;8.20;8.90
10968;DHT22;5536;49.602;10.980;2023-04-03T16:17:50;8.10;8.50
10968;DHT22;5536;49.602;10.980;2023-04-03T16:20:19;7.80;8.00
10968;DHT22;5536;49.602;10.980;2023-04-03T16:22:47;7.60;9.50